Time;durP1;ratioP1;P1;durP2;ratioP2;P2;SDS_P1;SDS_P2;PMS_P1;PMS_P2;Temp;Humidity;BMP_temperature;BMP_pressure;BME280_temperature;BME280_humidity;BME280_pressure;Samples;Min_cycle;Max_cycle;Signal;HPM_P1;HPM_P2
2022/06/03 00:01:08;;;;;;;;;;;;;;;;;;5013718;28;19917;-76
2022/06/03 00:03:50;;;;;;;;;;;;;;;;;;5045833;28;20405;-76
2022/06/03 00:06:16;;;;;;;;;;;;;;;;;;5025178;28;19922;-76
2022/06/03 00:08:49;;;;;;;;;;;;;;;;;;5025914;28;19918;-76
2022/06/03 00:11:14;;;;;;;;;;;;;;;;;;5025754;28;19928;-76
2022/06/03 00:13:45;;;;;;;;;;;;;;;;;;5025764;28;20008;-76
2022/06/03 00:16:24;;;;;;;;;;;;;;;;;;5025295;28;19918;-76
2022/06/03 00:19:11;;;;;;;;;;;;;;;;;;4993990;28;19917;-75
2022/06/03 00:21:42;;;;;;;;;;;;;;;;;;5041915;28;20376;-76
2022/06/03 00:24:08;;;;;;;;;;;;;;;;;;4993988;28;19922;-76
2022/06/03 00:26:42;;;;;;;;;;;;;;;;;;5041744;28;19918;-76
2022/06/03 00:29:16;;;;;;;;;;;;;;;;;;5024353;28;19917;-76
2022/06/03 00:31:59;;;;;;;;;;;;;;;;;;4990254;28;19917;-76
2022/06/03 00:34:27;;;;;;;;;;;;;;;;;;5018311;28;20012;-76
2022/06/03 00:37:00;;;;;;;;;;;;;;;;;;4991921;28;20332;-75
2022/06/03 00:39:26;;;;;;;;;;;;;;;;;;5023453;28;19917;-75
2022/06/03 00:42:17;;;;;;;;;;;;;;;;;;5006861;28;19987;-75
2022/06/03 00:44:48;;;;;;;;;;;;;;;;;;5023141;28;20446;-75
2022/06/03 00:47:17;;;;;;;;;;;;;;;;;;4990084;28;20014;-76
2022/06/03 00:49:45;;;;;;;;;;;;;;;;;;5023097;28;20016;-76
2022/06/03 00:52:25;;;;;;;;;;;;;;;;;;4990505;28;19918;-76
2022/06/03 00:54:51;;;;;;;;;;;;;;;;;;4990224;28;19921;-76
2022/06/03 00:57:23;;;;;;;;;;;;;;;;;;5006467;28;19918;-76
2022/06/03 01:00:00;;;;;;;;;;;;;;;;;;5023095;28;19929;-76
2022/06/03 01:02:39;;;;;;;;;;;;;;;;;;5008077;28;19917;-76
2022/06/03 01:05:07;;;;;;;;;;;;;;;;;;5025218;28;20024;-76
2022/06/03 01:07:32;;;;;;;;;;;;;;;;;;4993492;28;19918;-76
2022/06/03 01:09:58;;;;;;;;;;;;;;;;;;5008355;28;19963;-75
2022/06/03 01:12:29;;;;;;;;;;;;;;;;;;5024772;28;19963;-76
2022/06/03 01:15:13;;;;;;;;;;;;;;;;;;4993103;28;19924;-76
2022/06/03 01:17:48;;;;;;;;;;;;;;;;;;5008074;28;20303;-76
2022/06/03 01:20:17;;;;;;;;;;;;;;;;;;5008254;28;20321;-76
2022/06/03 01:23:01;;;;;;;;;;;;;;;;;;5024663;28;20344;-76
2022/06/03 01:25:41;;;;;;;;;;;;;;;;;;5007832;28;19922;-76
2022/06/03 01:28:23;;;;;;;;;;;;;;;;;;5008114;28;20383;-76
2022/06/03 01:31:07;;;;;;;;;;;;;;;;;;5008287;28;20383;-75
2022/06/03 01:33:41;;;;;;;;;;;;;;;;;;5044363;28;20055;-76
2022/06/03 01:36:28;;;;;;;;;;;;;;;;;;5060804;28;19917;-76
2022/06/03 01:39:12;;;;;;;;;;;;;;;;;;5011075;28;20375;-75
2022/06/03 01:41:48;;;;;;;;;;;;;;;;;;5059950;28;20375;-76
2022/06/03 01:44:14;;;;;;;;;;;;;;;;;;5010970;28;19967;-76
2022/06/03 01:46:45;;;;;;;;;;;;;;;;;;5042929;27;19921;-76
2022/06/03 01:49:29;;;;;;;;;;;;;;;;;;5011480;28;19917;-76
2022/06/03 01:52:11;;;;;;;;;;;;;;;;;;5060552;28;20374;-75
2022/06/03 01:54:58;;;;;;;;;;;;;;;;;;5027879;28;20356;-76
2022/06/03 01:57:34;;;;;;;;;;;;;;;;;;5024979;28;19939;-76
2022/06/03 02:00:19;;;;;;;;;;;;;;;;;;5011585;28;19921;-75
2022/06/03 02:02:45;;;;;;;;;;;;;;;;;;5060495;28;20443;-76
2022/06/03 02:05:18;;;;;;;;;;;;;;;;;;5060404;28;19928;-75
2022/06/03 02:07:49;;;;;;;;;;;;;;;;;;5010662;28;19932;-76
2022/06/03 02:10:35;;;;;;;;;;;;;;;;;;5027420;28;19939;-75
2022/06/03 02:13:04;;;;;;;;;;;;;;;;;;5059263;28;22315;-75
2022/06/03 02:15:39;;;;;;;;;;;;;;;;;;5043849;28;19917;-75
2022/06/03 02:18:21;;;;;;;;;;;;;;;;;;5060050;28;19917;-75
2022/06/03 02:20:51;;;;;;;;;;;;;;;;;;5027124;28;20275;-73
2022/06/03 02:23:27;;;;;;;;;;;;;;;;;;5012024;28;19956;-73
2022/06/03 02:26:03;;;;;;;;;;;;;;;;;;5027043;28;19922;-73
2022/06/03 02:28:39;;;;;;;;;;;;;;;;;;5027140;28;19923;-75
2022/06/03 02:31:16;;;;;;;;;;;;;;;;;;5011597;28;19928;-74
2022/06/03 02:33:42;;;;;;;;;;;;;;;;;;5011553;28;20000;-73
2022/06/03 02:36:26;;;;;;;;;;;;;;;;;;5059404;28;19967;-74
2022/06/03 02:39:10;;;;;;;;;;;;;;;;;;5011684;28;20016;-74
2022/06/03 02:41:48;;;;;;;;;;;;;;;;;;5059657;28;20348;-74
2022/06/03 02:44:16;;;;;;;;;;;;;;;;;;5011140;28;19936;-74
2022/06/03 02:46:42;;;;;;;;;;;;;;;;;;5059845;28;19924;-74
2022/06/03 02:49:10;;;;;;;;;;;;;;;;;;5043294;28;19917;-75
2022/06/03 02:51:45;;;;;;;;;;;;;;;;;;5014228;28;19920;-78
2022/06/03 02:54:19;;;;;;;;;;;;;;;;;;5013231;28;20277;-74
2022/06/03 02:57:10;;;;;;;;;;;;;;;;;;5042735;28;19921;-74
2022/06/03 02:59:52;;;;;;;;;;;;;;;;;;5009778;28;19921;-74
2022/06/03 03:02:38;;;;;;;;;;;;;;;;;;5010171;28;19922;-73
2022/06/03 03:05:14;;;;;;;;;;;;;;;;;;5042924;28;19952;-73
2022/06/03 03:07:44;;;;;;;;;;;;;;;;;;5058801;27;20462;-74
2022/06/03 03:10:29;;;;;;;;;;;;;;;;;;5026131;28;19917;-74
2022/06/03 03:13:13;;;;;;;;;;;;;;;;;;5042784;28;19921;-74
2022/06/03 03:15:50;;;;;;;;;;;;;;;;;;5042358;28;19921;-74
2022/06/03 03:18:18;;;;;;;;;;;;;;;;;;5009870;28;19932;-74
2022/06/03 03:21:06;;;;;;;;;;;;;;;;;;5042170;28;19933;-74
2022/06/03 03:23:40;;;;;;;;;;;;;;;;;;5010837;28;19917;-74
2022/06/03 03:26:15;;;;;;;;;;;;;;;;;;5010797;28;19928;-74
2022/06/03 03:28:59;;;;;;;;;;;;;;;;;;5043082;28;19954;-74
2022/06/03 03:31:36;;;;;;;;;;;;;;;;;;5058700;28;19932;-74
2022/06/03 03:34:14;;;;;;;;;;;;;;;;;;5042698;28;19965;-74
2022/06/03 03:37:07;;;;;;;;;;;;;;;;;;5010887;28;19917;-74
2022/06/03 03:39:49;;;;;;;;;;;;;;;;;;5006411;28;19921;-74
2022/06/03 03:42:21;;;;;;;;;;;;;;;;;;4990042;28;20435;-73
2022/06/03 03:44:56;;;;;;;;;;;;;;;;;;5022764;28;19957;-74
2022/06/03 03:47:53;;;;;;;;;;;;;;;;;;5022799;28;19918;-74
2022/06/03 03:50:42;;;;;;;;;;;;;;;;;;5022470;28;19953;-73
2022/06/03 03:53:35;;;;;;;;;;;;;;;;;;4983846;28;19918;-74
2022/06/03 03:56:27;;;;;;;;;;;;;;;;;;5006177;28;20279;-74
2022/06/03 03:58:59;;;;;;;;;;;;;;;;;;5022364;28;20008;-73
2022/06/03 04:01:39;;;;;;;;;;;;;;;;;;5002511;28;19925;-73
2022/06/03 04:04:17;;;;;;;;;;;;;;;;;;5025536;28;20014;-74
2022/06/03 04:07:04;;;;;;;;;;;;;;;;;;5041823;28;19929;-74
2022/06/03 04:09:30;;;;;;;;;;;;;;;;;;5029916;28;19918;-73
2022/06/03 04:11:55;;;;;;;;;;;;;;;;;;5042312;28;19924;-74
2022/06/03 04:14:21;;;;;;;;;;;;;;;;;;5010534;28;19924;-73
2022/06/03 04:17:11;;;;;;;;;;;;;;;;;;5025768;28;19917;-73
2022/06/03 04:19:48;;;;;;;;;;;;;;;;;;5008908;28;20019;-73
2022/06/03 04:22:32;;;;;;;;;;;;;;;;;;5010312;28;19921;-73
2022/06/03 04:25:07;;;;;;;;;;;;;;;;;;5059035;28;19921;-73
2022/06/03 04:27:49;;;;;;;;;;;;;;;;;;5061673;28;20340;-73
2022/06/03 04:30:15;;;;;;;;;;;;;;;;;;5028772;28;20450;-74
2022/06/03 04:32:42;;;;;;;;;;;;;;;;;;5061994;28;19918;-73
2022/06/03 04:35:09;;;;;;;;;;;;;;;;;;5045141;28;19918;-73
2022/06/03 04:37:38;;;;;;;;;;;;;;;;;;5061879;28;19921;-74
2022/06/03 04:40:36;;;;;;;;;;;;;;;;;;5013535;28;20421;-74
2022/06/03 04:43:14;;;;;;;;;;;;;;;;;;5012354;28;20351;-74
2022/06/03 04:45:45;;;;;;;;;;;;;;;;;;5027636;28;20013;-75
2022/06/03 04:48:30;;;;;;;;;;;;;;;;;;5045069;28;20401;-74
2022/06/03 04:50:59;;;;;;;;;;;;;;;;;;4995964;28;20251;-74
2022/06/03 04:53:27;;;;;;;;;;;;;;;;;;5061668;28;19926;-74
2022/06/03 04:56:21;;;;;;;;;;;;;;;;;;5047138;28;19925;-74
2022/06/03 04:59:04;;;;;;;;;;;;;;;;;;5015175;28;19921;-74
2022/06/03 05:01:33;;;;;;;;;;;;;;;;;;5007433;28;19921;-74
2022/06/03 05:04:14;;;;;;;;;;;;;;;;;;5045040;28;19925;-74
2022/06/03 05:06:51;;;;;;;;;;;;;;;;;;5044166;27;19917;-74
2022/06/03 05:09:37;;;;;;;;;;;;;;;;;;5011870;28;20379;-74
2022/06/03 05:12:31;;;;;;;;;;;;;;;;;;5044612;28;19918;-74
2022/06/03 05:15:33;;;;;;;;;;;;;;;;;;5027819;28;20012;-74
2022/06/03 05:18:02;;;;;;;;;;;;;;;;;;5093792;28;20365;-74
2022/06/03 05:20:37;;;;;;;;;;;;;;;;;;5006293;28;20354;-74
2022/06/03 05:23:26;;;;;;;;;;;;;;;;;;5044427;28;19926;-73
2022/06/03 05:26:10;;;;;;;;;;;;;;;;;;5044548;28;19925;-74
2022/06/03 05:28:44;;;;;;;;;;;;;;;;;;5060886;28;19918;-74
2022/06/03 05:31:12;;;;;;;;;;;;;;;;;;5011422;28;19913;-74
2022/06/03 05:33:56;;;;;;;;;;;;;;;;;;5012558;28;19919;-74
2022/06/03 05:36:24;;;;;;;;;;;;;;;;;;5060649;28;19917;-74
2022/06/03 05:39:04;;;;;;;;;;;;;;;;;;5012323;28;19921;-74
2022/06/03 05:45:07;;;;;;;;;;;;;;;;;;5043986;28;20302;-74
2022/06/03 05:47:33;;;;;;;;;;;;;;;;;;5027453;28;19918;-75
2022/06/03 05:50:07;;;;;;;;;;;;;;;;;;5043980;28;20012;-74
2022/06/03 05:52:33;;;;;;;;;;;;;;;;;;5024081;28;20303;-74
2022/06/03 05:55:18;;;;;;;;;;;;;;;;;;5042217;28;19924;-75
2022/06/03 05:57:46;;;;;;;;;;;;;;;;;;5044008;28;19924;-75
2022/06/03 06:00:32;;;;;;;;;;;;;;;;;;5027197;28;19921;-75
2022/06/03 06:03:09;;;;;;;;;;;;;;;;;;5043407;28;20399;-75
2022/06/03 06:05:37;;;;;;;;;;;;;;;;;;5012016;28;19926;-75
2022/06/03 06:08:06;;;;;;;;;;;;;;;;;;5060658;28;19918;-75
2022/06/03 06:10:50;;;;;;;;;;;;;;;;;;5059704;28;19921;-75
2022/06/03 06:13:21;;;;;;;;;;;;;;;;;;5027139;28;19917;-75
2022/06/03 06:16:07;;;;;;;;;;;;;;;;;;5043553;28;20274;-75
2022/06/03 06:18:36;;;;;;;;;;;;;;;;;;5007332;28;20006;-76
2022/06/03 06:21:01;;;;;;;;;;;;;;;;;;5024222;28;19918;-76
2022/06/03 06:23:46;;;;;;;;;;;;;;;;;;5040278;28;19917;-76
2022/06/03 06:26:11;;;;;;;;;;;;;;;;;;4992167;28;19922;-76
2022/06/03 06:29:05;;;;;;;;;;;;;;;;;;5023573;28;19939;-76
2022/06/03 06:31:36;;;;;;;;;;;;;;;;;;4991020;28;19925;-76
2022/06/03 06:34:20;;;;;;;;;;;;;;;;;;5023822;28;20280;-76
2022/06/03 06:36:54;;;;;;;;;;;;;;;;;;5040526;28;19918;-76
2022/06/03 06:39:38;;;;;;;;;;;;;;;;;;4992280;28;19960;-76
2022/06/03 06:42:12;;;;;;;;;;;;;;;;;;5026144;28;20414;-78
2022/06/03 06:44:50;;;;;;;;;;;;;;;;;;5009493;28;19921;-79
2022/06/03 06:47:30;;;;;;;;;;;;;;;;;;5025103;28;19963;-79
2022/06/03 06:50:16;;;;;;;;;;;;;;;;;;5013454;28;19924;-77
2022/06/03 06:52:42;;;;;;;;;;;;;;;;;;5066418;28;20001;-77
2022/06/03 06:55:15;;;;;;;;;;;;;;;;;;5016808;28;19949;-77
2022/06/03 06:57:48;;;;;;;;;;;;;;;;;;5043149;28;19917;-76
2022/06/03 07:00:18;;;;;;;;;;;;;;;;;;5009372;28;19974;-78
2022/06/03 07:02:50;;;;;;;;;;;;;;;;;;5057435;27;20439;-80
2022/06/03 07:05:19;;;;;;;;;;;;;;;;;;5006798;28;20012;-76
2022/06/03 07:08:02;;;;;;;;;;;;;;;;;;5021824;28;19922;-76
2022/06/03 07:10:37;;;;;;;;;;;;;;;;;;5008210;28;20009;-76
2022/06/03 07:13:16;;;;;;;;;;;;;;;;;;5009380;28;19966;-80
2022/06/03 07:15:58;;;;;;;;;;;;;;;;;;5007671;28;19925;-76
2022/06/03 07:21:16;;;;;;;;;;;;;;;;;;5028985;28;19978;-78
2022/06/03 07:23:49;;;;;;;;;;;;;;;;;;5009363;28;20020;-77
2022/06/03 07:26:19;;;;;;;;;;;;;;;;;;5095271;28;19929;-82
2022/06/03 07:28:48;;;;;;;;;;;;;;;;;;5010121;28;19967;-80
2022/06/03 07:31:32;;;;;;;;;;;;;;;;;;5010311;28;19971;-81
2022/06/03 07:33:59;;;;;;;;;;;;;;;;;;5009984;28;19968;-77
2022/06/03 07:36:33;;;;;;;;;;;;;;;;;;5007216;28;19957;-78
2022/06/03 07:39:22;;;;;;;;;;;;;;;;;;5093347;28;20298;-79
2022/06/03 07:41:52;;;;;;;;;;;;;;;;;;5028222;28;19917;-76
2022/06/03 07:44:21;;;;;;;;;;;;;;;;;;5056955;27;19988;-78
2022/06/03 07:47:00;;;;;;;;;;;;;;;;;;5009615;28;20007;-76
2022/06/03 07:49:27;;;;;;;;;;;;;;;;;;5025766;28;19918;-75
2022/06/03 07:51:54;;;;;;;;;;;;;;;;;;5052684;27;19917;-75
2022/06/03 07:54:19;;;;;;;;;;;;;;;;;;5030742;28;20065;-75
2022/06/03 07:56:45;;;;;;;;;;;;;;;;;;5056673;27;19945;-76
2022/06/03 07:59:17;;;;;;;;;;;;;;;;;;5026817;28;19974;-75
2022/06/03 08:01:43;;;;;;;;;;;;;;;;;;5045681;28;19967;-76
2022/06/03 08:04:24;;;;;;;;;;;;;;;;;;5029930;28;19924;-76
2022/06/03 08:12:27;;;;;;;;;;;;;;;;;;5016284;28;19918;-77
2022/06/03 08:14:52;;;;;;;;;;;;;;;;;;5027235;28;19918;-76
2022/06/03 08:17:19;;;;;;;;;;;;;;;;;;5012122;28;20397;-76
2022/06/03 08:19:45;;;;;;;;;;;;;;;;;;5012141;28;20004;-76
2022/06/03 08:22:13;;;;;;;;;;;;;;;;;;5012838;28;19917;-76
2022/06/03 08:24:41;;;;;;;;;;;;;;;;;;5029494;28;19925;-76
2022/06/03 08:27:10;;;;;;;;;;;;;;;;;;5029235;28;20546;-76
2022/06/03 08:29:42;;;;;;;;;;;;;;;;;;5014706;28;19940;-76
2022/06/03 08:32:11;;;;;;;;;;;;;;;;;;5047799;28;19921;-79
2022/06/03 08:34:38;;;;;;;;;;;;;;;;;;5035938;28;20286;-80
2022/06/03 08:37:06;;;;;;;;;;;;;;;;;;5036330;28;19918;-80
2022/06/03 08:39:33;;;;;;;;;;;;;;;;;;5035199;28;19921;-79
2022/06/03 08:42:05;;;;;;;;;;;;;;;;;;5017056;28;19921;-79
2022/06/03 08:44:39;;;;;;;;;;;;;;;;;;5017288;28;20378;-79
2022/06/03 08:47:20;;;;;;;;;;;;;;;;;;5017366;28;19980;-79
2022/06/03 08:49:51;;;;;;;;;;;;;;;;;;5018740;28;19922;-79
2022/06/03 08:52:19;;;;;;;;;;;;;;;;;;5037143;28;19924;-79
2022/06/03 08:54:48;;;;;;;;;;;;;;;;;;5036660;28;20303;-79
2022/06/03 08:57:23;;;;;;;;;;;;;;;;;;5038868;28;19925;-79
2022/06/03 08:59:52;;;;;;;;;;;;;;;;;;5036342;28;19957;-81
2022/06/03 09:02:30;;;;;;;;;;;;;;;;;;5017623;28;19917;-79
2022/06/03 09:05:02;;;;;;;;;;;;;;;;;;5018490;28;19925;-81
2022/06/03 09:07:36;;;;;;;;;;;;;;;;;;5018168;28;19918;-81
2022/06/03 09:10:07;;;;;;;;;;;;;;;;;;5034608;28;19917;-78
2022/06/03 09:12:32;;;;;;;;;;;;;;;;;;5066664;28;19917;-78
2022/06/03 09:15:11;;;;;;;;;;;;;;;;;;5052043;28;19940;-78
2022/06/03 09:17:51;;;;;;;;;;;;;;;;;;5018101;28;19917;-78
2022/06/03 09:20:26;;;;;;;;;;;;;;;;;;5043026;27;19921;-78
2022/06/03 09:22:58;;;;;;;;;;;;;;;;;;5069478;28;19917;-78
2022/06/03 09:25:26;;;;;;;;;;;;;;;;;;5053514;28;19921;-78
2022/06/03 09:27:51;;;;;;;;;;;;;;;;;;5071411;28;20358;-78
2022/06/03 09:30:27;;;;;;;;;;;;;;;;;;5052993;28;19917;-78
2022/06/03 09:32:56;;;;;;;;;;;;;;;;;;5026517;28;19967;-78
2022/06/03 09:35:22;;;;;;;;;;;;;;;;;;5033596;28;19924;-78
2022/06/03 09:37:50;;;;;;;;;;;;;;;;;;5050293;28;19917;-78
2022/06/03 09:40:22;;;;;;;;;;;;;;;;;;5017415;28;20279;-78
2022/06/03 09:42:56;;;;;;;;;;;;;;;;;;5016686;28;19918;-77
2022/06/03 09:45:23;;;;;;;;;;;;;;;;;;5017660;28;19917;-78
2022/06/03 09:47:49;;;;;;;;;;;;;;;;;;5017122;28;19949;-77
2022/06/03 09:50:15;;;;;;;;;;;;;;;;;;5049386;28;19917;-77
2022/06/03 09:52:42;;;;;;;;;;;;;;;;;;5029497;28;20025;-77
2022/06/03 09:55:22;;;;;;;;;;;;;;;;;;5030898;28;19953;-77
2022/06/03 09:57:48;;;;;;;;;;;;;;;;;;5064752;28;20290;-78
2022/06/03 10:00:21;;;;;;;;;;;;;;;;;;5015563;28;19921;-78
2022/06/03 10:02:46;;;;;;;;;;;;;;;;;;5005172;28;19963;-77
2022/06/03 10:05:15;;;;;;;;;;;;;;;;;;5012126;28;19925;-78
2022/06/03 10:07:40;;;;;;;;;;;;;;;;;;4996548;28;20398;-78
2022/06/03 10:12:52;;;;;;;;;;;;;;;;;;4996660;28;20030;-78
2022/06/03 10:15:38;;;;;;;;;;;;;;;;;;5028144;27;19918;-78
2022/06/03 10:18:08;;;;;;;;;;;;;;;;;;4994825;28;19921;-77
2022/06/03 10:20:34;;;;;;;;;;;;;;;;;;5027720;28;20087;-77
2022/06/03 10:23:08;;;;;;;;;;;;;;;;;;5010173;28;19918;-77
2022/06/03 10:25:35;;;;;;;;;;;;;;;;;;4995266;28;20337;-77
2022/06/03 10:28:07;;;;;;;;;;;;;;;;;;5029373;28;19917;-78
2022/06/03 10:30:33;;;;;;;;;;;;;;;;;;5030234;28;19924;-77
2022/06/03 10:32:59;;;;;;;;;;;;;;;;;;5015628;28;20402;-78
2022/06/03 10:35:31;;;;;;;;;;;;;;;;;;5017368;28;19921;-78
2022/06/03 10:37:58;;;;;;;;;;;;;;;;;;5031312;28;20375;-78
2022/06/03 10:40:24;;;;;;;;;;;;;;;;;;5031711;28;19981;-78
2022/06/03 10:42:51;;;;;;;;;;;;;;;;;;5015371;28;19924;-78
2022/06/03 10:45:17;;;;;;;;;;;;;;;;;;5029562;28;19921;-78
2022/06/03 10:47:44;;;;;;;;;;;;;;;;;;5017841;28;19917;-79
2022/06/03 10:50:26;;;;;;;;;;;;;;;;;;5038598;28;20340;-80
2022/06/03 11:01:53;;;;;;;;;;;;;;;;;;5029857;28;19922;-80
2022/06/03 11:04:24;;;;;;;;;;;;;;;;;;5009868;28;19939;-79
2022/06/03 11:06:49;;;;;;;;;;;;;;;;;;5027197;28;19918;-79
2022/06/03 11:09:15;;;;;;;;;;;;;;;;;;4995271;28;19929;-80
2022/06/03 11:11:43;;;;;;;;;;;;;;;;;;4996174;28;19918;-80
2022/06/03 11:14:41;;;;;;;;;;;;;;;;;;5016236;28;19918;-80
2022/06/03 11:17:22;;;;;;;;;;;;;;;;;;5034812;28;20054;-76
2022/06/03 11:19:49;;;;;;;;;;;;;;;;;;4990498;28;19925;-76
2022/06/03 11:22:35;;;;;;;;;;;;;;;;;;5006812;28;19922;-76
2022/06/03 11:25:04;;;;;;;;;;;;;;;;;;5110673;28;19965;-75
2022/06/03 11:27:36;;;;;;;;;;;;;;;;;;5113735;28;19920;-75
2022/06/03 11:30:05;;;;;;;;;;;;;;;;;;5113992;28;20490;-75
2022/06/03 11:32:31;;;;;;;;;;;;;;;;;;5034408;28;19960;-75
2022/06/03 11:34:59;;;;;;;;;;;;;;;;;;5009718;28;19917;-74
2022/06/03 11:37:28;;;;;;;;;;;;;;;;;;5013517;28;19929;-75
2022/06/03 11:40:04;;;;;;;;;;;;;;;;;;5012365;28;19924;-75
2022/06/03 11:42:39;;;;;;;;;;;;;;;;;;5028937;28;19925;-75
2022/06/03 11:45:16;;;;;;;;;;;;;;;;;;5014110;28;19925;-75
2022/06/03 11:47:49;;;;;;;;;;;;;;;;;;5045526;28;19974;-74
2022/06/03 11:50:22;;;;;;;;;;;;;;;;;;5012952;28;19918;-75
2022/06/03 11:52:49;;;;;;;;;;;;;;;;;;5028973;28;19924;-75
2022/06/03 11:55:16;;;;;;;;;;;;;;;;;;5012814;28;19922;-76
2022/06/03 11:57:47;;;;;;;;;;;;;;;;;;5028919;28;19918;-76
2022/06/03 12:00:19;;;;;;;;;;;;;;;;;;5013834;28;20457;-75
2022/06/03 12:02:56;;;;;;;;;;;;;;;;;;5045895;28;20004;-75
2022/06/03 12:05:27;;;;;;;;;;;;;;;;;;5045764;28;19921;-75
2022/06/03 12:08:14;;;;;;;;;;;;;;;;;;5012980;28;19928;-75
2022/06/03 12:14:13;;;;;;;;;;;;;;;;;;5095127;28;20282;-75
2022/06/03 12:16:56;;;;;;;;;;;;;;;;;;5077743;28;19916;-75
2022/06/03 12:19:36;;;;;;;;;;;;;;;;;;5030020;28;19927;-75
2022/06/03 12:22:18;;;;;;;;;;;;;;;;;;5011949;28;19917;-75
2022/06/03 12:24:44;;;;;;;;;;;;;;;;;;5013194;28;19921;-76
2022/06/03 12:27:14;;;;;;;;;;;;;;;;;;5027963;28;20004;-75
2022/06/03 12:29:43;;;;;;;;;;;;;;;;;;5045281;28;19921;-75
2022/06/03 12:32:16;;;;;;;;;;;;;;;;;;5012891;28;20680;-74
2022/06/03 12:34:42;;;;;;;;;;;;;;;;;;5045493;28;19924;-75
2022/06/03 12:37:34;;;;;;;;;;;;;;;;;;5013185;28;19917;-75
2022/06/03 12:40:01;;;;;;;;;;;;;;;;;;5015850;28;19917;-74
2022/06/03 12:42:26;;;;;;;;;;;;;;;;;;5028786;28;19924;-74
2022/06/03 12:45:14;;;;;;;;;;;;;;;;;;5013462;28;19925;-75
2022/06/03 12:47:40;;;;;;;;;;;;;;;;;;5010898;28;19917;-75
2022/06/03 12:50:05;;;;;;;;;;;;;;;;;;5045170;28;19917;-75
2022/06/03 12:52:31;;;;;;;;;;;;;;;;;;5012130;28;19918;-75
2022/06/03 12:55:11;;;;;;;;;;;;;;;;;;5013044;28;19917;-75
2022/06/03 12:57:49;;;;;;;;;;;;;;;;;;5044984;28;19917;-75
2022/06/03 13:00:20;;;;;;;;;;;;;;;;;;5012902;28;20091;-75
2022/06/03 13:02:48;;;;;;;;;;;;;;;;;;5044545;28;19966;-75
2022/06/03 13:05:37;;;;;;;;;;;;;;;;;;5044393;28;20016;-75
2022/06/03 13:08:04;;;;;;;;;;;;;;;;;;5022917;28;19917;-75
2022/06/03 13:10:32;;;;;;;;;;;;;;;;;;5012841;28;19944;-75
2022/06/03 13:13:20;;;;;;;;;;;;;;;;;;5011659;28;19918;-74
2022/06/03 13:15:46;;;;;;;;;;;;;;;;;;5012813;28;19921;-75
2022/06/03 13:18:18;;;;;;;;;;;;;;;;;;5012363;28;19918;-75
2022/06/03 13:21:09;;;;;;;;;;;;;;;;;;5012112;28;20426;-75
2022/06/03 13:23:45;;;;;;;;;;;;;;;;;;5011083;28;19917;-75
2022/06/03 13:26:19;;;;;;;;;;;;;;;;;;5012525;28;19928;-75
2022/06/03 13:28:45;;;;;;;;;;;;;;;;;;5012552;28;19921;-75
2022/06/03 13:31:16;;;;;;;;;;;;;;;;;;5012423;28;20055;-75
2022/06/03 13:34:00;;;;;;;;;;;;;;;;;;5011615;28;19917;-75
2022/06/03 13:36:33;;;;;;;;;;;;;;;;;;5012150;28;20016;-75
2022/06/03 13:38:59;;;;;;;;;;;;;;;;;;5026513;28;19917;-75
2022/06/03 13:44:17;;;;;;;;;;;;;;;;;;5012222;28;19924;-75
2022/06/03 13:46:46;;;;;;;;;;;;;;;;;;5027454;28;19921;-75
2022/06/03 13:49:20;;;;;;;;;;;;;;;;;;5011269;28;19967;-75
2022/06/03 13:51:57;;;;;;;;;;;;;;;;;;5011879;28;19921;-75
2022/06/03 13:54:37;;;;;;;;;;;;;;;;;;5011429;28;20684;-74
2022/06/03 13:57:09;;;;;;;;;;;;;;;;;;5012119;28;20021;-75
2022/06/03 13:59:38;;;;;;;;;;;;;;;;;;5011535;28;20355;-76
2022/06/03 14:02:09;;;;;;;;;;;;;;;;;;5011452;28;19924;-76
2022/06/03 14:04:45;;;;;;;;;;;;;;;;;;5012300;28;19922;-75
2022/06/03 14:07:10;;;;;;;;;;;;;;;;;;5010908;28;19921;-75
2022/06/03 14:09:47;;;;;;;;;;;;;;;;;;4999848;28;20009;-76
2022/06/03 14:12:29;;;;;;;;;;;;;;;;;;4995506;28;20361;-79
2022/06/03 14:15:02;;;;;;;;;;;;;;;;;;5028425;28;20524;-78
2022/06/03 14:17:46;;;;;;;;;;;;;;;;;;5053394;28;19919;-78
2022/06/03 14:20:14;;;;;;;;;;;;;;;;;;5017778;28;19917;-78
2022/06/03 14:22:58;;;;;;;;;;;;;;;;;;5034383;28;20011;-82
2022/06/03 14:25:45;;;;;;;;;;;;;;;;;;5036109;28;19944;-82
2022/06/03 14:28:26;;;;;;;;;;;;;;;;;;5069181;27;19924;-81
2022/06/03 14:30:58;;;;;;;;;;;;;;;;;;5017043;28;19921;-83
2022/06/03 14:33:27;;;;;;;;;;;;;;;;;;5034750;28;20458;-83
2022/06/03 14:36:00;;;;;;;;;;;;;;;;;;5068666;27;19928;-82
2022/06/03 14:38:37;;;;;;;;;;;;;;;;;;5052754;28;19917;-83
2022/06/03 14:41:05;;;;;;;;;;;;;;;;;;5019596;28;19917;-82
2022/06/03 14:43:31;;;;;;;;;;;;;;;;;;5068954;27;19917;-83
2022/06/03 14:45:58;;;;;;;;;;;;;;;;;;5007992;28;19921;-82
2022/06/03 14:48:27;;;;;;;;;;;;;;;;;;5020643;28;19960;-82
2022/06/03 14:51:08;;;;;;;;;;;;;;;;;;5037788;28;20043;-82
2022/06/03 14:53:37;;;;;;;;;;;;;;;;;;5020451;28;19917;-82
2022/06/03 14:56:18;;;;;;;;;;;;;;;;;;5023342;28;19921;-83
2022/06/03 14:58:45;;;;;;;;;;;;;;;;;;5016067;28;19969;-82
2022/06/03 15:01:30;;;;;;;;;;;;;;;;;;5023525;28;19917;-83
2022/06/03 15:03:59;;;;;;;;;;;;;;;;;;5048617;28;19921;-83
2022/06/03 15:06:36;;;;;;;;;;;;;;;;;;5101890;28;19930;-82
2022/06/03 15:09:09;;;;;;;;;;;;;;;;;;5118741;27;19918;-83
2022/06/03 15:11:43;;;;;;;;;;;;;;;;;;5032124;28;19924;-83
2022/06/03 15:14:11;;;;;;;;;;;;;;;;;;5040823;27;19918;-82
2022/06/03 15:16:56;;;;;;;;;;;;;;;;;;5014030;28;19922;-82
2022/06/03 15:19:41;;;;;;;;;;;;;;;;;;5012898;28;20004;-82
2022/06/03 15:22:26;;;;;;;;;;;;;;;;;;5029119;28;20004;-82
2022/06/03 15:24:53;;;;;;;;;;;;;;;;;;4996583;28;19929;-82
2022/06/03 15:27:31;;;;;;;;;;;;;;;;;;5029362;28;19953;-82
2022/06/03 15:29:56;;;;;;;;;;;;;;;;;;5012929;28;19925;-82
2022/06/03 15:32:25;;;;;;;;;;;;;;;;;;5012459;28;20451;-80
2022/06/03 15:35:01;;;;;;;;;;;;;;;;;;4995152;28;19925;-83
2022/06/03 15:37:27;;;;;;;;;;;;;;;;;;5013609;28;20010;-82
2022/06/03 15:39:54;;;;;;;;;;;;;;;;;;5012115;28;19918;-82
2022/06/03 15:42:22;;;;;;;;;;;;;;;;;;5013921;28;19922;-82
2022/06/03 15:44:48;;;;;;;;;;;;;;;;;;5001284;28;19983;-82
2022/06/03 15:47:23;;;;;;;;;;;;;;;;;;4996662;28;19922;-82
2022/06/03 15:50:00;;;;;;;;;;;;;;;;;;4996002;28;19917;-82
2022/06/03 15:52:25;;;;;;;;;;;;;;;;;;5028695;28;19922;-81
2022/06/03 15:54:56;;;;;;;;;;;;;;;;;;5012883;28;19971;-81
2022/06/03 15:57:28;;;;;;;;;;;;;;;;;;4995710;28;19914;-82
2022/06/03 16:00:03;;;;;;;;;;;;;;;;;;5013055;28;19929;-81
2022/06/03 16:02:44;;;;;;;;;;;;;;;;;;5028969;28;19918;-81
2022/06/03 16:05:18;;;;;;;;;;;;;;;;;;4996214;28;19922;-81
2022/06/03 16:07:53;;;;;;;;;;;;;;;;;;5013011;28;19925;-83
2022/06/03 16:10:37;;;;;;;;;;;;;;;;;;4997804;28;19982;-82
2022/06/03 16:13:21;;;;;;;;;;;;;;;;;;4997721;28;19918;-83
2022/06/03 16:16:08;;;;;;;;;;;;;;;;;;5045770;28;19925;-83
2022/06/03 16:18:46;;;;;;;;;;;;;;;;;;5046402;28;19969;-83
2022/06/03 16:21:11;;;;;;;;;;;;;;;;;;5046898;28;19918;-83
2022/06/03 16:23:41;;;;;;;;;;;;;;;;;;5033193;28;19917;-82
2022/06/03 16:26:16;;;;;;;;;;;;;;;;;;4999860;28;20304;-82
2022/06/03 16:29:00;;;;;;;;;;;;;;;;;;5031413;28;20367;-83
2022/06/03 16:31:44;;;;;;;;;;;;;;;;;;5039059;28;20329;-83
2022/06/03 16:34:18;;;;;;;;;;;;;;;;;;5039366;28;19917;-83
2022/06/03 16:36:45;;;;;;;;;;;;;;;;;;5022619;28;19917;-83
2022/06/03 16:39:12;;;;;;;;;;;;;;;;;;5056598;28;19917;-83
2022/06/03 16:41:47;;;;;;;;;;;;;;;;;;5022479;28;19924;-83
2022/06/03 16:44:22;;;;;;;;;;;;;;;;;;5055495;28;19917;-82
2022/06/03 16:47:01;;;;;;;;;;;;;;;;;;5038300;27;19922;-83
2022/06/03 16:49:30;;;;;;;;;;;;;;;;;;5013832;28;19924;-82
2022/06/03 16:52:00;;;;;;;;;;;;;;;;;;5045570;28;20350;-82
2022/06/03 16:54:34;;;;;;;;;;;;;;;;;;5019938;28;19985;-82
2022/06/03 16:57:02;;;;;;;;;;;;;;;;;;5002572;28;20405;-82
2022/06/03 16:59:31;;;;;;;;;;;;;;;;;;5003957;28;19929;-82
2022/06/03 17:02:00;;;;;;;;;;;;;;;;;;5034999;28;19924;-82
2022/06/03 17:04:27;;;;;;;;;;;;;;;;;;5038880;28;20088;-82
2022/06/03 17:06:58;;;;;;;;;;;;;;;;;;5020291;28;19924;-82
2022/06/03 17:09:30;;;;;;;;;;;;;;;;;;5027965;28;19921;-82
2022/06/03 17:11:59;;;;;;;;;;;;;;;;;;5042593;28;19927;-82
2022/06/03 17:14:31;;;;;;;;;;;;;;;;;;5069027;28;20298;-82
2022/06/03 17:17:25;;;;;;;;;;;;;;;;;;5052688;28;19924;-82
2022/06/03 17:20:03;;;;;;;;;;;;;;;;;;5011806;28;20068;-82
2022/06/03 17:22:33;;;;;;;;;;;;;;;;;;5053236;28;19917;-82
2022/06/03 17:25:12;;;;;;;;;;;;;;;;;;5052027;28;19921;-82
2022/06/03 17:27:52;;;;;;;;;;;;;;;;;;5052512;28;19917;-82
2022/06/03 17:30:24;;;;;;;;;;;;;;;;;;5051734;28;19917;-82
2022/06/03 17:32:52;;;;;;;;;;;;;;;;;;5018146;28;19921;-82
2022/06/03 17:35:50;;;;;;;;;;;;;;;;;;5018852;28;19971;-82
2022/06/03 17:38:34;;;;;;;;;;;;;;;;;;4997062;28;20375;-82
2022/06/03 17:41:13;;;;;;;;;;;;;;;;;;5034999;28;19925;-82
2022/06/03 17:43:39;;;;;;;;;;;;;;;;;;5052362;28;19962;-82
2022/06/03 17:46:15;;;;;;;;;;;;;;;;;;5018985;28;20343;-82
2022/06/03 17:48:59;;;;;;;;;;;;;;;;;;5019296;28;20286;-82
2022/06/03 17:57:31;;;;;;;;;;;;;;;;;;5034677;28;19924;-82
2022/06/03 17:59:57;;;;;;;;;;;;;;;;;;4999315;28;19982;-82
2022/06/03 18:02:54;;;;;;;;;;;;;;;;;;5011361;28;20371;-82
2022/06/03 18:05:25;;;;;;;;;;;;;;;;;;5019381;28;19996;-82
2022/06/03 18:08:07;;;;;;;;;;;;;;;;;;5039928;28;20399;-82
2022/06/03 18:10:34;;;;;;;;;;;;;;;;;;5012773;28;20444;-82